createdAt,value
2018-03-19T00:01:27.696Z,69.04
2018-03-19T00:03:55.846Z,69.25
2018-03-19T00:06:23.988Z,69.44
2018-03-19T00:08:52.115Z,68.43
2018-03-19T00:11:20.226Z,68.64
2018-03-19T00:13:48.378Z,68.42
2018-03-19T00:16:16.565Z,68.77
2018-03-19T00:18:44.705Z,68.33
2018-03-19T00:21:12.855Z,68.68
2018-03-19T00:23:40.999Z,68.58
2018-03-19T00:26:09.156Z,69.15
2018-03-19T00:28:37.271Z,68.39
2018-03-19T00:31:05.476Z,68.22
2018-03-19T00:33:33.696Z,67.94
2018-03-19T00:36:01.878Z,68.31
2018-03-19T00:38:30.025Z,67.91
2018-03-19T00:40:58.261Z,67.80
2018-03-19T00:43:26.482Z,68.49
2018-03-19T00:45:54.643Z,68.20
2018-03-19T00:48:22.784Z,68.55
2018-03-19T00:50:51.783Z,68.86
2018-03-19T00:53:19.966Z,67.50
2018-03-19T00:55:48.112Z,68.96
2018-03-19T00:58:16.260Z,68.85
2018-03-19T01:00:44.400Z,67.54
2018-03-19T01:03:12.558Z,67.79
2018-03-19T01:05:40.718Z,69.04
2018-03-19T01:08:08.857Z,69.20
2018-03-19T01:10:37.023Z,69.38
2018-03-19T01:13:05.139Z,68.73
2018-03-19T01:15:33.297Z,69.19
2018-03-19T01:18:09.324Z,68.99
2018-03-19T01:20:37.477Z,68.67
2018-03-19T01:23:05.632Z,70.41
2018-03-19T01:25:33.803Z,69.48
2018-03-19T01:28:01.961Z,69.34
2018-03-19T01:30:30.107Z,67.89
2018-03-19T01:32:58.246Z,67.47
2018-03-19T01:35:26.439Z,67.38
2018-03-19T01:37:54.557Z,67.26
2018-03-19T01:40:22.721Z,67.97
2018-03-19T01:42:50.838Z,67.75
2018-03-19T01:45:18.988Z,67.46
2018-03-19T01:47:47.122Z,68.62
2018-03-19T01:50:15.291Z,67.24
2018-03-19T01:52:49.562Z,67.55
2018-03-19T01:55:17.735Z,67.80
2018-03-19T01:57:45.870Z,67.88
2018-03-19T02:00:14.108Z,68.73
2018-03-19T02:02:42.239Z,68.20
2018-03-19T02:05:10.787Z,67.30
2018-03-19T02:07:38.933Z,68.07
2018-03-19T02:10:07.096Z,67.27
2018-03-19T02:12:35.238Z,67.62
2018-03-19T02:15:03.377Z,68.61
2018-03-19T02:17:31.512Z,67.73
2018-03-19T02:19:59.632Z,67.89
2018-03-19T02:22:27.798Z,68.29
2018-03-19T02:24:56.080Z,67.31
2018-03-19T02:27:24.262Z,68.35
2018-03-19T02:29:52.390Z,69.02
2018-03-19T02:32:20.524Z,68.09
2018-03-19T02:34:48.685Z,69.00
2018-03-19T02:37:16.834Z,69.28
2018-03-19T02:39:44.992Z,68.52
2018-03-19T02:42:13.166Z,69.58
2018-03-19T02:44:41.367Z,69.88
2018-03-19T02:47:09.996Z,69.47
2018-03-19T02:49:38.131Z,68.61
2018-03-19T02:52:06.281Z,68.96
2018-03-19T02:54:34.427Z,68.31
2018-03-19T02:57:02.597Z,68.25
2018-03-19T02:59:30.756Z,68.62
2018-03-19T03:01:58.898Z,68.57
2018-03-19T03:04:27.307Z,68.19
2018-03-19T03:06:55.475Z,68.45
2018-03-19T03:09:23.629Z,67.35
2018-03-19T03:11:51.776Z,68.80
2018-03-19T03:14:19.924Z,69.24
2018-03-19T03:16:48.107Z,68.89
2018-03-19T03:19:16.314Z,69.30
2018-03-19T03:21:44.432Z,68.62
2018-03-19T03:24:12.605Z,69.62
2018-03-19T03:26:40.749Z,68.23
2018-03-19T03:29:08.934Z,70.26
2018-03-19T03:31:37.109Z,69.73
2018-03-19T03:34:05.249Z,69.36
2018-03-19T03:36:34.070Z,70.14
2018-03-19T03:39:02.207Z,70.53
2018-03-19T03:41:30.397Z,69.75
2018-03-19T03:43:58.573Z,69.37
2018-03-19T03:46:26.718Z,70.70
2018-03-19T03:48:54.849Z,71.73
2018-03-19T03:51:23.012Z,72.07
2018-03-19T03:53:51.176Z,71.28
2018-03-19T03:56:19.360Z,71.63
2018-03-19T03:58:47.492Z,71.64
2018-03-19T04:01:15.614Z,71.62
2018-03-19T04:03:43.799Z,71.70
2018-03-19T04:06:11.962Z,71.75
2018-03-19T04:08:40.104Z,72.40
2018-03-19T04:11:08.253Z,71.41
2018-03-19T04:13:36.408Z,72.08
2018-03-19T04:16:04.552Z,72.73
2018-03-19T04:18:32.690Z,72.57
2018-03-19T04:21:00.827Z,71.99
2018-03-19T04:23:29.003Z,72.84
2018-03-19T04:25:57.164Z,72.20
2018-03-19T04:28:25.304Z,71.53
2018-03-19T04:30:53.511Z,71.68
2018-03-19T04:33:21.656Z,71.44
2018-03-19T04:35:49.818Z,72.65
2018-03-19T04:38:17.950Z,70.20
2018-03-19T04:40:46.081Z,70.07
2018-03-19T04:43:14.214Z,69.59
2018-03-19T04:45:42.346Z,70.73
2018-03-19T04:48:10.514Z,71.28
2018-03-19T04:50:38.676Z,71.60
2018-03-19T04:53:06.896Z,71.37
2018-03-19T04:55:35.084Z,71.76
2018-03-19T04:58:03.244Z,69.71
2018-03-19T05:00:31.376Z,69.93
2018-03-19T05:02:59.554Z,69.64
2018-03-19T05:05:27.710Z,69.61
2018-03-19T05:07:56.177Z,69.92
2018-03-19T05:10:24.367Z,68.64
2018-03-19T05:12:52.539Z,69.59
2018-03-19T05:15:20.692Z,70.06
2018-03-19T05:17:48.837Z,68.45
2018-03-19T05:20:16.992Z,69.79
2018-03-19T05:22:45.150Z,68.79
2018-03-19T05:25:13.324Z,68.78
2018-03-19T05:27:41.469Z,70.31
2018-03-19T05:30:09.606Z,70.61
2018-03-19T05:32:37.753Z,70.46
2018-03-19T05:35:05.993Z,71.03
2018-03-19T05:37:34.203Z,70.33
2018-03-19T05:40:02.333Z,70.25
2018-03-19T05:42:30.470Z,69.39
2018-03-19T05:44:58.622Z,69.61
2018-03-19T05:47:26.781Z,68.31
2018-03-19T05:49:55.019Z,68.96
2018-03-19T05:52:23.133Z,69.67
2018-03-19T05:54:51.371Z,69.21
2018-03-19T05:57:19.500Z,68.49
2018-03-19T05:59:47.662Z,69.40
2018-03-19T06:02:15.798Z,69.14
2018-03-19T06:04:43.942Z,68.91
2018-03-19T06:07:12.114Z,68.77
2018-03-19T06:09:40.260Z,68.52
2018-03-19T06:12:08.404Z,69.57
2018-03-19T06:14:36.547Z,69.56
2018-03-19T06:17:04.684Z,68.94
2018-03-19T06:19:32.831Z,68.75
2018-03-19T06:22:01.125Z,67.55
2018-03-19T06:24:29.261Z,67.85
2018-03-19T06:26:57.396Z,68.96
2018-03-19T06:29:25.599Z,67.67
2018-03-19T06:31:53.731Z,67.32
2018-03-19T06:34:21.868Z,68.33
2018-03-19T06:36:50.002Z,68.27
2018-03-19T06:39:18.166Z,67.81
2018-03-19T06:41:46.327Z,68.17
2018-03-19T06:44:14.485Z,67.62
2018-03-19T06:46:42.715Z,67.44
2018-03-19T06:49:10.899Z,68.15
2018-03-19T06:51:39.053Z,68.21
2018-03-19T06:54:07.467Z,67.52
2018-03-19T06:56:35.953Z,67.42
2018-03-19T06:59:04.134Z,67.93
2018-03-19T07:01:32.261Z,68.32
2018-03-19T07:04:00.408Z,67.47
2018-03-19T07:06:28.607Z,67.79
2018-03-19T07:08:56.717Z,66.01
2018-03-19T07:11:24.897Z,66.63
2018-03-19T07:13:53.157Z,67.46
2018-03-19T07:16:21.296Z,66.25
2018-03-19T07:18:49.439Z,66.64
2018-03-19T07:21:17.584Z,67.47
2018-03-19T07:23:45.714Z,66.42
2018-03-19T07:26:13.874Z,68.35
2018-03-19T07:28:42.017Z,67.64
2018-03-19T07:31:10.313Z,66.03
2018-03-19T07:33:38.897Z,66.74
2018-03-19T07:36:07.051Z,66.52
2018-03-19T07:38:35.201Z,66.51
2018-03-19T07:41:03.408Z,66.56
2018-03-19T07:43:31.560Z,65.31
2018-03-19T07:45:59.708Z,65.09
2018-03-19T07:48:29.524Z,63.95
2018-03-19T07:50:57.680Z,64.64
2018-03-19T07:53:25.818Z,64.01
2018-03-19T07:55:54.018Z,65.76
2018-03-19T07:58:22.139Z,65.64
2018-03-19T08:00:50.385Z,64.40
2018-03-19T08:03:18.519Z,65.37
2018-03-19T08:05:46.688Z,63.73
2018-03-19T08:08:14.827Z,64.09
2018-03-19T08:10:42.985Z,64.20
2018-03-19T08:13:11.136Z,65.22
2018-03-19T08:15:39.280Z,65.15
2018-03-19T08:18:07.584Z,65.39
2018-03-19T08:20:35.731Z,64.35
2018-03-19T08:23:03.877Z,64.16
2018-03-19T08:25:32.060Z,64.09
2018-03-19T08:28:00.191Z,65.39
2018-03-19T08:30:28.378Z,65.56
2018-03-19T08:32:56.503Z,64.06
2018-03-19T08:35:24.645Z,64.07
2018-03-19T08:37:52.953Z,64.02
2018-03-19T08:40:21.103Z,63.23
2018-03-19T08:42:49.250Z,64.70
2018-03-19T08:45:17.415Z,61.66
2018-03-19T08:47:45.563Z,62.25
2018-03-19T08:50:13.768Z,61.30
2018-03-19T08:52:41.905Z,61.94
2018-03-19T08:55:10.169Z,62.42
2018-03-19T08:57:38.383Z,62.38
2018-03-19T09:00:06.533Z,63.81
2018-03-19T09:02:34.700Z,62.91
2018-03-19T09:05:02.853Z,61.17
2018-03-19T09:07:31.012Z,61.90
2018-03-19T09:09:59.179Z,61.83
2018-03-19T09:12:27.327Z,60.08
2018-03-19T09:14:55.497Z,62.06
2018-03-19T09:17:23.646Z,63.37
2018-03-19T09:19:51.835Z,61.56
2018-03-19T09:22:20.000Z,61.36
2018-03-19T09:24:48.137Z,60.38
2018-03-19T09:27:16.292Z,59.92
2018-03-19T09:29:44.463Z,58.76
2018-03-19T09:32:12.616Z,58.77
2018-03-19T09:34:40.830Z,59.15
2018-03-19T09:37:08.971Z,58.31
2018-03-19T09:39:37.132Z,58.28
2018-03-19T09:42:05.267Z,58.45
2018-03-19T09:44:33.487Z,58.99
2018-03-19T09:47:01.665Z,58.26
2018-03-19T09:49:29.810Z,59.79
2018-03-19T09:51:57.931Z,57.21
2018-03-19T09:54:26.068Z,56.47
2018-03-19T09:56:54.222Z,57.69
2018-03-19T09:59:22.374Z,56.61
2018-03-19T10:01:50.516Z,56.15
2018-03-19T10:04:18.648Z,57.90
2018-03-19T10:06:46.813Z,57.23
2018-03-19T10:09:14.993Z,58.27
2018-03-19T10:11:43.373Z,57.28
2018-03-19T10:14:11.533Z,58.98
2018-03-19T10:16:39.661Z,57.44
2018-03-19T10:19:07.862Z,57.79
2018-03-19T10:21:36.072Z,58.15
2018-03-19T10:24:04.233Z,59.65
2018-03-19T10:26:32.422Z,57.23
2018-03-19T10:29:00.565Z,56.53
2018-03-19T10:31:28.761Z,56.31
2018-03-19T10:33:56.907Z,56.62
2018-03-19T10:36:25.049Z,57.91
2018-03-19T10:38:53.173Z,55.65
2018-03-19T10:41:21.334Z,57.46
2018-03-19T10:43:49.475Z,56.60
2018-03-19T10:46:18.185Z,58.66
2018-03-19T10:48:46.376Z,56.40
2018-03-19T10:51:14.550Z,58.12
2018-03-19T10:53:42.740Z,59.42
2018-03-19T10:56:10.881Z,58.21
2018-03-19T10:58:39.137Z,59.35
2018-03-19T11:01:13.062Z,59.22
2018-03-19T11:03:41.206Z,58.69
2018-03-19T11:06:15.028Z,57.94
2018-03-19T11:08:47.148Z,59.95
2018-03-19T11:11:15.308Z,59.19
2018-03-19T11:13:44.325Z,55.70
2018-03-19T11:16:12.473Z,58.32
2018-03-19T11:18:40.619Z,54.58
2018-03-19T11:21:08.771Z,57.22
2018-03-19T11:23:36.934Z,57.38
2018-03-19T11:26:05.097Z,57.88
2018-03-19T11:28:33.266Z,56.71
2018-03-19T11:31:01.356Z,56.63
2018-03-19T11:33:29.522Z,56.30
2018-03-19T11:35:57.678Z,57.11
2018-03-19T11:38:25.832Z,55.02
2018-03-19T11:40:53.975Z,55.39
2018-03-19T11:43:22.105Z,55.61
2018-03-19T11:45:50.254Z,56.03
2018-03-19T11:48:18.453Z,57.35
2018-03-19T11:50:46.612Z,57.37
2018-03-19T11:53:14.758Z,58.55
2018-03-19T11:55:42.904Z,57.64
2018-03-19T11:58:11.052Z,57.13
2018-03-19T12:00:39.174Z,57.01
2018-03-19T12:03:07.388Z,54.08
2018-03-19T12:05:35.538Z,55.11
2018-03-19T12:08:03.661Z,54.83
2018-03-19T12:10:31.783Z,54.46
2018-03-19T12:12:59.933Z,55.80
2018-03-19T12:15:28.068Z,55.39
2018-03-19T12:17:56.202Z,56.35
2018-03-19T12:20:24.332Z,58.12
2018-03-19T12:22:52.476Z,55.89
2018-03-19T12:25:20.680Z,55.16
2018-03-19T12:27:48.842Z,55.92
2018-03-19T12:30:16.963Z,56.17
2018-03-19T12:32:45.097Z,56.10
2018-03-19T12:35:13.288Z,56.03
2018-03-19T12:37:42.407Z,55.57
2018-03-19T12:40:10.557Z,57.13
2018-03-19T12:42:38.892Z,54.42
2018-03-19T12:45:07.066Z,56.53
2018-03-19T12:47:35.176Z,55.55
2018-03-19T12:50:03.312Z,54.81
2018-03-19T12:52:31.437Z,53.76
2018-03-19T12:54:59.578Z,54.43
2018-03-19T12:57:27.737Z,55.62
2018-03-19T12:59:55.910Z,56.52
2018-03-19T13:02:24.039Z,58.25
2018-03-19T13:04:52.336Z,55.28
2018-03-19T13:07:20.887Z,56.62
2018-03-19T13:09:49.019Z,55.24
2018-03-19T13:12:17.215Z,55.82
2018-03-19T13:14:45.364Z,57.57
2018-03-19T13:17:13.519Z,57.62
2018-03-19T13:19:41.748Z,56.75
2018-03-19T13:22:09.885Z,57.73
2018-03-19T13:24:38.055Z,57.20
2018-03-19T13:27:06.371Z,57.92
2018-03-19T13:29:34.499Z,55.47
2018-03-19T13:32:02.627Z,55.91
2018-03-19T13:34:30.843Z,56.49
2018-03-19T13:36:59.277Z,57.17
2018-03-19T13:39:27.421Z,58.99
2018-03-19T13:41:55.651Z,58.51
2018-03-19T13:44:23.800Z,57.60
2018-03-19T13:46:51.971Z,58.87
2018-03-19T13:49:20.156Z,59.18
2018-03-19T13:51:48.297Z,58.57
2018-03-19T13:54:16.439Z,59.57
2018-03-19T13:56:44.631Z,59.83
2018-03-19T13:59:12.817Z,60.26
2018-03-19T14:01:40.976Z,60.24
2018-03-19T14:04:09.135Z,60.19
2018-03-19T14:06:37.327Z,59.16
2018-03-19T14:09:06.363Z,60.08
2018-03-19T14:11:34.520Z,59.83
2018-03-19T14:14:02.783Z,60.45
2018-03-19T14:16:30.928Z,60.56
2018-03-19T14:18:59.065Z,60.12
2018-03-19T14:21:27.249Z,59.57
2018-03-19T14:23:55.419Z,60.93
2018-03-19T14:26:23.559Z,61.85
2018-03-19T14:28:51.743Z,61.28
2018-03-19T14:31:20.422Z,60.28
2018-03-19T14:33:48.654Z,61.04
2018-03-19T14:36:17.440Z,61.40
2018-03-19T14:38:45.733Z,62.16
2018-03-19T14:41:13.932Z,61.67
2018-03-19T14:43:42.048Z,61.28
2018-03-19T14:46:10.775Z,62.98
2018-03-19T14:48:39.095Z,64.69
2018-03-19T14:51:07.995Z,65.45
2018-03-19T14:53:36.148Z,65.39
2018-03-19T14:56:04.311Z,65.49
2018-03-19T14:58:32.458Z,64.57
2018-03-19T15:01:00.737Z,65.58
2018-03-19T15:03:28.945Z,65.79
2018-03-19T15:05:57.091Z,63.84
2018-03-19T15:08:25.245Z,64.78
2018-03-19T15:10:53.746Z,66.00
2018-03-19T15:13:21.920Z,65.27
2018-03-19T15:15:50.077Z,64.52
2018-03-19T15:18:18.264Z,65.33
2018-03-19T15:20:46.438Z,65.93
2018-03-19T15:23:14.592Z,67.93
2018-03-19T15:25:42.777Z,68.94
2018-03-19T15:28:10.906Z,68.54
2018-03-19T15:30:39.083Z,69.30
2018-03-19T15:33:07.331Z,67.93
2018-03-19T15:35:35.478Z,67.89
2018-03-19T15:38:03.623Z,68.37
2018-03-19T15:40:31.800Z,68.99
2018-03-19T15:43:00.900Z,69.62
2018-03-19T15:45:29.064Z,69.29
2018-03-19T15:47:57.244Z,68.91
2018-03-19T15:50:25.417Z,69.66
2018-03-19T15:52:53.541Z,70.91
2018-03-19T15:55:21.761Z,71.35
2018-03-19T15:57:50.021Z,71.87
2018-03-19T16:00:18.159Z,72.53
2018-03-19T16:02:46.335Z,73.12
2018-03-19T16:05:14.491Z,73.50
2018-03-19T16:07:42.627Z,74.39
2018-03-19T16:10:10.878Z,74.62
2018-03-19T16:12:39.062Z,73.88
2018-03-19T16:15:07.295Z,74.12
2018-03-19T16:17:35.451Z,74.83
2018-03-19T16:20:03.587Z,75.26
2018-03-19T16:22:31.717Z,76.19
2018-03-19T16:25:00.788Z,77.50
2018-03-19T16:27:28.987Z,76.86
2018-03-19T16:29:57.148Z,76.34
2018-03-19T16:32:25.304Z,75.52
2018-03-19T16:34:53.457Z,75.78
2018-03-19T16:37:21.596Z,77.24
2018-03-19T16:39:49.779Z,78.32
2018-03-19T16:42:17.931Z,78.47
2018-03-19T16:44:46.067Z,78.72
2018-03-19T16:47:14.243Z,79.24
2018-03-19T16:49:42.434Z,79.38
2018-03-19T16:52:10.583Z,80.28
2018-03-19T16:54:39.066Z,80.54
2018-03-19T16:57:07.299Z,80.34
2018-03-19T16:59:35.435Z,80.43
2018-03-19T17:02:03.649Z,81.09
2018-03-19T17:04:31.820Z,81.18
2018-03-19T17:06:59.973Z,81.38
2018-03-19T17:09:28.153Z,82.10
2018-03-19T17:11:56.309Z,81.80
2018-03-19T17:14:24.497Z,81.88
2018-03-19T17:16:52.673Z,81.60
2018-03-19T17:19:21.381Z,81.74
2018-03-19T17:21:49.585Z,81.85
2018-03-19T17:24:17.998Z,82.52
2018-03-19T17:26:46.121Z,83.49
2018-03-19T17:29:14.825Z,83.84
2018-03-19T17:31:43.677Z,83.63
2018-03-19T17:34:11.805Z,83.53
2018-03-19T17:36:39.963Z,83.82
2018-03-19T17:39:08.123Z,84.69
2018-03-19T17:41:36.302Z,84.86
2018-03-19T17:44:04.478Z,84.96
2018-03-19T17:46:32.646Z,85.40
2018-03-19T17:49:00.808Z,85.61
2018-03-19T17:51:28.987Z,85.51
2018-03-19T17:53:57.671Z,85.72
2018-03-19T17:56:25.859Z,86.20
2018-03-19T17:58:54.040Z,86.23
2018-03-19T18:01:22.479Z,86.39
2018-03-19T18:03:50.598Z,86.40
2018-03-19T18:06:18.790Z,86.68
2018-03-19T18:08:46.967Z,87.00
2018-03-19T18:11:15.119Z,87.33
2018-03-19T18:13:43.273Z,87.49
2018-03-19T18:16:11.461Z,87.45
2018-03-19T18:18:39.643Z,87.31
2018-03-19T18:21:07.912Z,87.92
2018-03-19T18:23:36.091Z,88.13
2018-03-19T18:26:04.237Z,88.16
2018-03-19T18:28:32.436Z,88.42
2018-03-19T18:31:00.592Z,88.61
2018-03-19T18:33:28.750Z,88.89
2018-03-19T18:35:56.992Z,89.05
2018-03-19T18:38:25.118Z,89.06
2018-03-19T18:40:53.259Z,89.11
2018-03-19T18:43:21.399Z,89.16
2018-03-19T18:45:49.567Z,89.29
2018-03-19T18:48:17.716Z,89.34
2018-03-19T18:50:45.852Z,89.26
2018-03-19T18:53:14.118Z,89.32
2018-03-19T18:55:43.051Z,89.16
2018-03-19T18:58:11.246Z,88.69
2018-03-19T19:00:39.436Z,89.05
2018-03-19T19:03:07.644Z,89.22
2018-03-19T19:05:35.774Z,89.00
2018-03-19T19:08:03.989Z,88.90
2018-03-19T19:10:32.152Z,89.03
2018-03-19T19:13:00.290Z,89.15
2018-03-19T19:15:28.431Z,89.16
2018-03-19T19:17:56.597Z,89.35
2018-03-19T19:20:24.740Z,89.56
2018-03-19T19:22:52.926Z,89.54
2018-03-19T19:25:21.078Z,89.52
2018-03-19T19:27:49.248Z,89.77
2018-03-19T19:30:17.762Z,89.77
2018-03-19T19:32:45.907Z,89.75
2018-03-19T19:35:14.044Z,89.90
2018-03-19T19:37:42.216Z,89.70
2018-03-19T19:40:10.375Z,89.43
2018-03-19T19:42:38.499Z,89.60
2018-03-19T19:45:06.761Z,89.79
2018-03-19T19:47:35.079Z,90.04
2018-03-19T19:50:03.392Z,90.19
2018-03-19T19:52:31.563Z,90.42
2018-03-19T19:54:59.708Z,90.54
2018-03-19T19:57:27.866Z,90.53
2018-03-19T19:59:56.021Z,90.51
2018-03-19T20:02:24.171Z,90.61
2018-03-19T20:04:52.317Z,90.75
2018-03-19T20:07:20.617Z,90.77
2018-03-19T20:09:48.780Z,90.90
2018-03-19T20:12:16.897Z,90.94
2018-03-19T20:14:45.068Z,90.94
2018-03-19T20:17:13.230Z,90.98
2018-03-19T20:19:41.403Z,90.99
2018-03-19T20:22:09.564Z,90.96
2018-03-19T20:24:37.693Z,90.80
2018-03-19T20:27:05.924Z,90.66
2018-03-19T20:29:34.090Z,90.63
2018-03-19T20:32:02.224Z,90.63
2018-03-19T20:34:30.403Z,90.34
2018-03-19T20:36:58.571Z,90.42
2018-03-19T20:39:26.714Z,90.51
2018-03-19T20:41:54.869Z,90.59
2018-03-19T20:44:23.008Z,90.64
2018-03-19T20:46:51.161Z,90.60
2018-03-19T20:49:19.312Z,90.61
2018-03-19T20:51:47.606Z,90.61
2018-03-19T20:54:15.767Z,90.67
2018-03-19T20:56:43.931Z,90.81
2018-03-19T20:59:12.081Z,90.86
2018-03-19T21:01:40.224Z,90.63
2018-03-19T21:04:08.376Z,90.55
2018-03-19T21:06:36.529Z,90.50
2018-03-19T21:09:05.577Z,90.66
2018-03-19T21:11:33.757Z,90.72
2018-03-19T21:14:01.895Z,90.72
2018-03-19T21:16:30.051Z,90.73
2018-03-19T21:18:58.179Z,90.47
2018-03-19T21:21:26.316Z,90.48
2018-03-19T21:23:54.453Z,89.79
2018-03-19T21:26:22.591Z,90.06
2018-03-19T21:28:50.741Z,90.17
2018-03-19T21:31:18.867Z,90.43
2018-03-19T21:33:47.054Z,90.66
2018-03-19T21:36:15.287Z,90.73
2018-03-19T21:38:43.646Z,90.79
2018-03-19T21:41:11.773Z,90.82
2018-03-19T21:43:39.915Z,90.73
2018-03-19T21:46:08.072Z,90.83
2018-03-19T21:48:36.207Z,90.80
2018-03-19T21:51:04.369Z,90.71
2018-03-19T21:53:32.504Z,90.76
2018-03-19T21:56:00.624Z,90.80
2018-03-19T21:58:28.788Z,90.87
2018-03-19T22:00:56.906Z,90.91
2018-03-19T22:03:25.048Z,90.83
2018-03-19T22:05:53.177Z,90.79
2018-03-19T22:08:21.345Z,90.83
2018-03-19T22:10:49.531Z,90.81
2018-03-19T22:13:17.665Z,90.80
2018-03-19T22:15:45.805Z,90.67
2018-03-19T22:18:13.952Z,90.67
2018-03-19T22:20:42.093Z,90.88
2018-03-19T22:23:10.578Z,91.02
2018-03-19T22:25:38.704Z,91.11
2018-03-19T22:28:06.846Z,91.14
2018-03-19T22:30:34.962Z,91.19
2018-03-19T22:33:03.132Z,91.22
2018-03-19T22:35:31.285Z,91.41
2018-03-19T22:37:59.413Z,91.31
2018-03-19T22:40:27.553Z,91.41
2018-03-19T22:42:55.700Z,91.55
2018-03-19T22:45:23.877Z,91.40
2018-03-19T22:47:52.004Z,91.33
2018-03-19T22:50:20.165Z,91.58
2018-03-19T22:52:48.277Z,91.59
2018-03-19T22:55:17.149Z,91.63
2018-03-19T22:57:45.345Z,91.61
2018-03-19T23:00:13.482Z,91.57
2018-03-19T23:02:41.625Z,91.49
2018-03-19T23:05:25.736Z,91.48
2018-03-19T23:07:53.884Z,91.60
2018-03-19T23:10:22.008Z,91.60
2018-03-19T23:12:50.146Z,91.66
2018-03-19T23:15:18.280Z,91.72
2018-03-19T23:17:46.518Z,91.69
2018-03-19T23:20:14.669Z,91.67
2018-03-19T23:22:42.811Z,91.61
2018-03-19T23:25:10.954Z,91.70
2018-03-19T23:27:39.067Z,91.77
2018-03-19T23:30:07.230Z,91.74
2018-03-19T23:32:35.409Z,91.80
2018-03-19T23:35:06.649Z,91.77
2018-03-19T23:37:34.788Z,91.52
2018-03-19T23:40:02.950Z,91.64
2018-03-19T23:42:31.183Z,91.65
2018-03-19T23:44:59.339Z,91.71
2018-03-19T23:47:27.507Z,91.78
2018-03-19T23:49:55.692Z,91.65
2018-03-19T23:52:23.856Z,91.66
2018-03-19T23:54:51.984Z,91.58
2018-03-19T23:57:23.531Z,91.38
2018-03-19T23:59:51.651Z,91.53
